sensor_id;sensor_type;location;lat;lon;timestamp;temperature;humidity
69084;SHT31;56185;48.526;9.044;2023-04-01T00:00:19;8.97;83.20
69084;SHT31;56185;48.526;9.044;2023-04-01T00:02:44;8.98;84.30
69084;SHT31;56185;48.526;9.044;2023-04-01T00:05:10;9.01;83.37
69084;SHT31;56185;48.526;9.044;2023-04-01T00:07:36;9.01;83.63
69084;SHT31;56185;48.526;9.044;2023-04-01T00:10:06;9.04;83.53
69084;SHT31;56185;48.526;9.044;2023-04-01T00:12:31;8.98;83.57
69084;SHT31;56185;48.526;9.044;2023-04-01T00:14:57;8.98;83.23
69084;SHT31;56185;48.526;9.044;2023-04-01T00:17:22;9.04;82.87
69084;SHT31;56185;48.526;9.044;2023-04-01T00:19:47;9.04;83.01
69084;SHT31;56185;48.526;9.044;2023-04-01T00:22:12;8.88;82.96
69084;SHT31;56185;48.526;9.044;2023-04-01T00:24:38;8.91;82.91
69084;SHT31;56185;48.526;9.044;2023-04-01T00:27:03;8.91;83.04
69084;SHT31;56185;48.526;9.044;2023-04-01T00:29:29;8.97;83.33
69084;SHT31;56185;48.526;9.044;2023-04-01T00:31:55;8.98;83.09
69084;SHT31;56185;48.526;9.044;2023-04-01T00:34:20;9.00;82.95
69084;SHT31;56185;48.526;9.044;2023-04-01T00:36:45;8.94;82.71
69084;SHT31;56185;48.526;9.044;2023-04-01T00:39:11;8.94;82.27
69084;SHT31;56185;48.526;9.044;2023-04-01T00:41:36;8.89;82.58
69084;SHT31;56185;48.526;9.044;2023-04-01T00:44:22;8.84;82.11
69084;SHT31;56185;48.526;9.044;2023-04-01T00:46:48;8.82;83.30
69084;SHT31;56185;48.526;9.044;2023-04-01T00:49:15;8.84;82.72
69084;SHT31;56185;48.526;9.044;2023-04-01T00:51:42;8.81;82.52
69084;SHT31;56185;48.526;9.044;2023-04-01T00:54:08;8.80;83.51
69084;SHT31;56185;48.526;9.044;2023-04-01T00:56:39;8.82;82.45
69084;SHT31;56185;48.526;9.044;2023-04-01T00:59:11;8.78;82.23
69084;SHT31;56185;48.526;9.044;2023-04-01T01:01:38;8.77;82.38
69084;SHT31;56185;48.526;9.044;2023-04-01T01:04:03;8.61;82.65
69084;SHT31;56185;48.526;9.044;2023-04-01T01:12:45;8.77;82.18
69084;SHT31;56185;48.526;9.044;2023-04-01T01:15:21;8.70;82.12
69084;SHT31;56185;48.526;9.044;2023-04-01T01:37:08;8.82;80.34
69084;SHT31;56185;48.526;9.044;2023-04-01T01:39:36;8.82;81.54
69084;SHT31;56185;48.526;9.044;2023-04-01T01:42:04;8.78;81.09
69084;SHT31;56185;48.526;9.044;2023-04-01T01:44:32;8.75;80.77
69084;SHT31;56185;48.526;9.044;2023-04-01T01:46:58;8.78;81.01
69084;SHT31;56185;48.526;9.044;2023-04-01T01:49:25;8.80;80.84
69084;SHT31;56185;48.526;9.044;2023-04-01T01:51:51;8.77;80.58
69084;SHT31;56185;48.526;9.044;2023-04-01T01:54:17;8.71;80.35
69084;SHT31;56185;48.526;9.044;2023-04-01T01:56:46;8.74;79.60
69084;SHT31;56185;48.526;9.044;2023-04-01T01:59:14;8.77;80.75
69084;SHT31;56185;48.526;9.044;2023-04-01T02:01:43;8.80;80.62
69084;SHT31;56185;48.526;9.044;2023-04-01T02:04:09;8.68;79.83
69084;SHT31;56185;48.526;9.044;2023-04-01T02:06:38;8.77;80.00
69084;SHT31;56185;48.526;9.044;2023-04-01T02:09:06;8.68;80.04
69084;SHT31;56185;48.526;9.044;2023-04-01T02:11:42;8.73;80.82
69084;SHT31;56185;48.526;9.044;2023-04-01T02:14:13;8.74;79.46
69084;SHT31;56185;48.526;9.044;2023-04-01T02:16:50;8.80;80.50
69084;SHT31;56185;48.526;9.044;2023-04-01T02:19:16;8.75;80.00
69084;SHT31;56185;48.526;9.044;2023-04-01T02:21:42;8.78;81.35
69084;SHT31;56185;48.526;9.044;2023-04-01T02:24:12;8.67;80.41
69084;SHT31;56185;48.526;9.044;2023-04-01T02:26:38;8.53;80.95
69084;SHT31;56185;48.526;9.044;2023-04-01T02:29:05;8.46;80.20
69084;SHT31;56185;48.526;9.044;2023-04-01T02:31:31;8.47;80.49
69084;SHT31;56185;48.526;9.044;2023-04-01T02:33:57;8.47;81.21
69084;SHT31;56185;48.526;9.044;2023-04-01T02:36:23;8.50;81.58
69084;SHT31;56185;48.526;9.044;2023-04-01T02:38:49;8.53;80.99
69084;SHT31;56185;48.526;9.044;2023-04-01T02:41:14;8.56;80.60
69084;SHT31;56185;48.526;9.044;2023-04-01T02:43:40;8.56;81.31
69084;SHT31;56185;48.526;9.044;2023-04-01T02:46:05;8.56;81.12
69084;SHT31;56185;48.526;9.044;2023-04-01T02:48:30;8.44;81.52
69084;SHT31;56185;48.526;9.044;2023-04-01T02:50:56;8.37;81.93
69084;SHT31;56185;48.526;9.044;2023-04-01T02:53:21;8.34;81.64
69084;SHT31;56185;48.526;9.044;2023-04-01T02:55:46;8.30;82.16
69084;SHT31;56185;48.526;9.044;2023-04-01T02:58:12;8.25;81.04
69084;SHT31;56185;48.526;9.044;2023-04-01T03:00:37;8.28;82.09
69084;SHT31;56185;48.526;9.044;2023-04-01T03:03:03;8.23;81.12
69084;SHT31;56185;48.526;9.044;2023-04-01T03:05:28;8.22;81.07
69084;SHT31;56185;48.526;9.044;2023-04-01T03:07:54;8.15;81.78
69084;SHT31;56185;48.526;9.044;2023-04-01T03:10:19;8.16;81.33
69084;SHT31;56185;48.526;9.044;2023-04-01T03:12:45;8.06;80.66
69084;SHT31;56185;48.526;9.044;2023-04-01T03:15:11;7.98;81.37
69084;SHT31;56185;48.526;9.044;2023-04-01T03:17:38;7.99;80.68
69084;SHT31;56185;48.526;9.044;2023-04-01T03:20:03;7.98;80.84
69084;SHT31;56185;48.526;9.044;2023-04-01T03:22:29;8.05;80.77
69084;SHT31;56185;48.526;9.044;2023-04-01T03:24:54;8.03;80.13
69084;SHT31;56185;48.526;9.044;2023-04-01T03:27:19;8.03;80.27
69084;SHT31;56185;48.526;9.044;2023-04-01T03:29:44;8.02;79.71
69084;SHT31;56185;48.526;9.044;2023-04-01T03:32:10;7.96;79.87
69084;SHT31;56185;48.526;9.044;2023-04-01T03:34:35;7.95;79.83
69084;SHT31;56185;48.526;9.044;2023-04-01T03:37:00;7.95;79.59
69084;SHT31;56185;48.526;9.044;2023-04-01T03:39:25;7.89;80.16
69084;SHT31;56185;48.526;9.044;2023-04-01T03:41:51;7.86;81.02
69084;SHT31;56185;48.526;9.044;2023-04-01T03:44:16;7.81;80.77
69084;SHT31;56185;48.526;9.044;2023-04-01T03:46:41;7.86;80.45
69084;SHT31;56185;48.526;9.044;2023-04-01T03:49:08;7.92;80.48
69084;SHT31;56185;48.526;9.044;2023-04-01T03:51:33;7.85;80.45
69084;SHT31;56185;48.526;9.044;2023-04-01T03:53:59;7.86;80.57
69084;SHT31;56185;48.526;9.044;2023-04-01T03:56:24;7.86;80.35
69084;SHT31;56185;48.526;9.044;2023-04-01T03:58:49;7.89;80.21
69084;SHT31;56185;48.526;9.044;2023-04-01T04:01:19;7.91;80.22
69084;SHT31;56185;48.526;9.044;2023-04-01T04:03:45;7.95;80.51
69084;SHT31;56185;48.526;9.044;2023-04-01T04:06:12;7.93;80.45
69084;SHT31;56185;48.526;9.044;2023-04-01T04:08:38;7.93;81.18
69084;SHT31;56185;48.526;9.044;2023-04-01T04:11:03;7.91;81.12
69084;SHT31;56185;48.526;9.044;2023-04-01T04:13:28;7.86;81.20
69084;SHT31;56185;48.526;9.044;2023-04-01T04:15:53;7.84;81.49
69084;SHT31;56185;48.526;9.044;2023-04-01T04:18:19;7.77;81.40
69084;SHT31;56185;48.526;9.044;2023-04-01T04:20:45;7.77;81.78
69084;SHT31;56185;48.526;9.044;2023-04-01T04:23:10;7.81;81.48
69084;SHT31;56185;48.526;9.044;2023-04-01T04:25:36;7.82;81.42
69084;SHT31;56185;48.526;9.044;2023-04-01T04:28:01;7.77;81.80
69084;SHT31;56185;48.526;9.044;2023-04-01T04:30:26;7.81;81.59
69084;SHT31;56185;48.526;9.044;2023-04-01T04:32:51;7.82;81.99
69084;SHT31;56185;48.526;9.044;2023-04-01T04:35:16;7.84;81.99
69084;SHT31;56185;48.526;9.044;2023-04-01T04:37:42;7.88;81.71
69084;SHT31;56185;48.526;9.044;2023-04-01T04:40:07;7.88;81.64
69084;SHT31;56185;48.526;9.044;2023-04-01T04:42:33;7.96;81.70
69084;SHT31;56185;48.526;9.044;2023-04-01T04:44:58;8.03;81.02
69084;SHT31;56185;48.526;9.044;2023-04-01T04:47:23;8.10;80.83
69084;SHT31;56185;48.526;9.044;2023-04-01T04:49:48;8.10;81.28
69084;SHT31;56185;48.526;9.044;2023-04-01T04:52:14;8.17;80.73
69084;SHT31;56185;48.526;9.044;2023-04-01T04:54:39;8.07;80.52
69084;SHT31;56185;48.526;9.044;2023-04-01T04:57:04;8.03;80.47
69084;SHT31;56185;48.526;9.044;2023-04-01T04:59:30;8.01;80.92
69084;SHT31;56185;48.526;9.044;2023-04-01T05:01:55;8.07;80.53
69084;SHT31;56185;48.526;9.044;2023-04-01T05:04:21;8.12;81.08
69084;SHT31;56185;48.526;9.044;2023-04-01T05:06:46;8.15;80.80
69084;SHT31;56185;48.526;9.044;2023-04-01T05:09:11;8.07;81.17
69084;SHT31;56185;48.526;9.044;2023-04-01T05:11:37;8.10;80.34
69084;SHT31;56185;48.526;9.044;2023-04-01T05:14:02;8.12;81.14
69084;SHT31;56185;48.526;9.044;2023-04-01T05:16:27;8.17;81.01
69084;SHT31;56185;48.526;9.044;2023-04-01T05:18:52;8.17;79.99
69084;SHT31;56185;48.526;9.044;2023-04-01T05:21:18;8.21;79.95
69084;SHT31;56185;48.526;9.044;2023-04-01T05:23:43;8.15;79.65
69084;SHT31;56185;48.526;9.044;2023-04-01T05:26:14;8.19;79.87
69084;SHT31;56185;48.526;9.044;2023-04-01T05:28:39;8.13;79.43
69084;SHT31;56185;48.526;9.044;2023-04-01T05:31:06;8.21;79.87
69084;SHT31;56185;48.526;9.044;2023-04-01T05:33:31;8.19;79.68
69084;SHT31;56185;48.526;9.044;2023-04-01T05:36:11;8.21;79.32
69084;SHT31;56185;48.526;9.044;2023-04-01T05:38:37;8.32;79.80
69084;SHT31;56185;48.526;9.044;2023-04-01T05:41:03;8.39;78.99
69084;SHT31;56185;48.526;9.044;2023-04-01T05:43:28;8.39;78.38
69084;SHT31;56185;48.526;9.044;2023-04-01T05:45:53;8.40;78.84
69084;SHT31;56185;48.526;9.044;2023-04-01T05:48:19;8.42;78.53
69084;SHT31;56185;48.526;9.044;2023-04-01T05:50:44;8.36;78.43
69084;SHT31;56185;48.526;9.044;2023-04-01T05:53:09;8.36;78.53
69084;SHT31;56185;48.526;9.044;2023-04-01T05:55:35;8.39;78.88
69084;SHT31;56185;48.526;9.044;2023-04-01T05:58:00;8.46;78.17
69084;SHT31;56185;48.526;9.044;2023-04-01T06:00:25;8.42;78.58
69084;SHT31;56185;48.526;9.044;2023-04-01T06:02:51;8.40;78.32
69084;SHT31;56185;48.526;9.044;2023-04-01T06:05:24;8.46;78.19
69084;SHT31;56185;48.526;9.044;2023-04-01T06:07:58;8.47;78.44
69084;SHT31;56185;48.526;9.044;2023-04-01T06:10:39;8.56;77.59
69084;SHT31;56185;48.526;9.044;2023-04-01T06:16:58;8.60;78.15
69084;SHT31;56185;48.526;9.044;2023-04-01T06:22:34;8.70;77.18
69084;SHT31;56185;48.526;9.044;2023-04-01T06:35:38;8.84;77.15
69084;SHT31;56185;48.526;9.044;2023-04-01T06:49:21;8.84;77.10
69084;SHT31;56185;48.526;9.044;2023-04-01T06:52:31;8.94;77.89
69084;SHT31;56185;48.526;9.044;2023-04-01T06:57:48;9.01;77.29
69084;SHT31;56185;48.526;9.044;2023-04-01T07:00:22;9.04;77.07
69084;SHT31;56185;48.526;9.044;2023-04-01T07:02:59;9.02;76.61
69084;SHT31;56185;48.526;9.044;2023-04-01T07:05:30;8.95;76.51
69084;SHT31;56185;48.526;9.044;2023-04-01T07:07:59;9.01;76.75
69084;SHT31;56185;48.526;9.044;2023-04-01T07:10:43;9.07;76.81
69084;SHT31;56185;48.526;9.044;2023-04-01T07:13:31;9.07;77.24
69084;SHT31;56185;48.526;9.044;2023-04-01T07:16:05;9.08;78.09
69084;SHT31;56185;48.526;9.044;2023-04-01T07:18:37;9.01;77.31
69084;SHT31;56185;48.526;9.044;2023-04-01T07:21:10;9.15;77.29
69084;SHT31;56185;48.526;9.044;2023-04-01T07:23:42;9.16;76.90
69084;SHT31;56185;48.526;9.044;2023-04-01T07:26:28;9.15;77.46
69084;SHT31;56185;48.526;9.044;2023-04-01T07:28:53;9.22;76.98
69084;SHT31;56185;48.526;9.044;2023-04-01T07:48:04;9.29;78.40
69084;SHT31;56185;48.526;9.044;2023-04-01T07:53:25;9.40;77.84
69084;SHT31;56185;48.526;9.044;2023-04-01T07:56:07;9.38;78.09
69084;SHT31;56185;48.526;9.044;2023-04-01T08:01:58;9.38;78.35
69084;SHT31;56185;48.526;9.044;2023-04-01T08:07:18;9.35;77.56
69084;SHT31;56185;48.526;9.044;2023-04-01T08:15:23;9.31;78.03
69084;SHT31;56185;48.526;9.044;2023-04-01T08:20:59;9.33;78.82
69084;SHT31;56185;48.526;9.044;2023-04-01T08:23:36;9.33;79.54
69084;SHT31;56185;48.526;9.044;2023-04-01T08:26:06;9.35;80.24
69084;SHT31;56185;48.526;9.044;2023-04-01T08:31:19;9.36;79.20
69084;SHT31;56185;48.526;9.044;2023-04-01T08:33:48;9.32;79.12
69084;SHT31;56185;48.526;9.044;2023-04-01T08:36:31;9.32;80.92
69084;SHT31;56185;48.526;9.044;2023-04-01T08:39:12;9.40;80.41
69084;SHT31;56185;48.526;9.044;2023-04-01T08:52:37;9.53;80.17
69084;SHT31;56185;48.526;9.044;2023-04-01T08:55:27;9.54;79.78
69084;SHT31;56185;48.526;9.044;2023-04-01T08:58:20;9.43;79.72
69084;SHT31;56185;48.526;9.044;2023-04-01T09:01:40;9.54;79.77
69084;SHT31;56185;48.526;9.044;2023-04-01T09:12:54;9.72;80.63
69084;SHT31;56185;48.526;9.044;2023-04-01T09:18:19;9.83;81.79
69084;SHT31;56185;48.526;9.044;2023-04-01T09:23:52;9.95;80.82
69084;SHT31;56185;48.526;9.044;2023-04-01T09:26:28;10.00;81.17
69084;SHT31;56185;48.526;9.044;2023-04-01T09:31:44;10.02;80.13
69084;SHT31;56185;48.526;9.044;2023-04-01T09:34:30;9.95;80.82
69084;SHT31;56185;48.526;9.044;2023-04-01T09:37:02;9.94;82.01
69084;SHT31;56185;48.526;9.044;2023-04-01T09:39:42;9.97;82.09
69084;SHT31;56185;48.526;9.044;2023-04-01T09:42:34;9.93;81.23
69084;SHT31;56185;48.526;9.044;2023-04-01T09:53:46;9.95;81.82
69084;SHT31;56185;48.526;9.044;2023-04-01T09:56:32;9.98;81.62
69084;SHT31;56185;48.526;9.044;2023-04-01T10:02:41;9.90;81.12
69084;SHT31;56185;48.526;9.044;2023-04-01T10:16:18;9.81;82.27
69084;SHT31;56185;48.526;9.044;2023-04-01T10:29:51;9.79;81.82
69084;SHT31;56185;48.526;9.044;2023-04-01T10:49:44;9.87;81.07
69084;SHT31;56185;48.526;9.044;2023-04-01T11:25:49;10.27;78.32
69084;SHT31;56185;48.526;9.044;2023-04-01T11:31:16;10.22;78.73
69084;SHT31;56185;48.526;9.044;2023-04-01T11:33:54;10.28;77.83
69084;SHT31;56185;48.526;9.044;2023-04-01T11:36:40;10.24;78.47
69084;SHT31;56185;48.526;9.044;2023-04-01T11:39:33;10.21;78.35
69084;SHT31;56185;48.526;9.044;2023-04-01T11:42:03;10.22;78.47
69084;SHT31;56185;48.526;9.044;2023-04-01T11:44:34;10.21;77.23
69084;SHT31;56185;48.526;9.044;2023-04-01T11:52:52;10.27;78.59
69084;SHT31;56185;48.526;9.044;2023-04-01T12:11:24;10.15;78.53
69084;SHT31;56185;48.526;9.044;2023-04-01T12:14:16;10.34;80.13
69084;SHT31;56185;48.526;9.044;2023-04-01T12:19:32;10.38;78.05
69084;SHT31;56185;48.526;9.044;2023-04-01T12:22:30;10.41;78.05
69084;SHT31;56185;48.526;9.044;2023-04-01T12:27:50;10.46;76.89
69084;SHT31;56185;48.526;9.044;2023-04-01T12:30:32;10.48;78.59
69084;SHT31;56185;48.526;9.044;2023-04-01T12:41:56;10.49;76.17
69084;SHT31;56185;48.526;9.044;2023-04-01T12:47:16;10.77;76.48
69084;SHT31;56185;48.526;9.044;2023-04-01T12:55:48;10.88;77.13
69084;SHT31;56185;48.526;9.044;2023-04-01T12:58:41;10.92;75.34
69084;SHT31;56185;48.526;9.044;2023-04-01T13:01:29;10.86;75.11
69084;SHT31;56185;48.526;9.044;2023-04-01T13:04:04;10.90;74.30
69084;SHT31;56185;48.526;9.044;2023-04-01T13:06:39;10.88;74.85
69084;SHT31;56185;48.526;9.044;2023-04-01T13:12:33;11.21;75.69
69084;SHT31;56185;48.526;9.044;2023-04-01T13:15:17;11.51;74.79
69084;SHT31;56185;48.526;9.044;2023-04-01T13:17:50;11.61;72.37
69084;SHT31;56185;48.526;9.044;2023-04-01T13:20:24;11.61;73.51
69084;SHT31;56185;48.526;9.044;2023-04-01T13:23:19;11.48;72.73
69084;SHT31;56185;48.526;9.044;2023-04-01T13:29:18;11.42;71.76
69084;SHT31;56185;48.526;9.044;2023-04-01T13:37:26;11.28;72.79
69084;SHT31;56185;48.526;9.044;2023-04-01T13:51:13;11.26;73.28
69084;SHT31;56185;48.526;9.044;2023-04-01T13:56:29;11.14;71.98
69084;SHT31;56185;48.526;9.044;2023-04-01T14:01:44;11.20;73.78
69084;SHT31;56185;48.526;9.044;2023-04-01T14:04:38;11.17;72.01
69084;SHT31;56185;48.526;9.044;2023-04-01T14:07:39;11.23;73.41
69084;SHT31;56185;48.526;9.044;2023-04-01T14:10:13;11.30;72.57
69084;SHT31;56185;48.526;9.044;2023-04-01T14:13:05;11.31;72.83
69084;SHT31;56185;48.526;9.044;2023-04-01T14:16:04;11.24;72.00
69084;SHT31;56185;48.526;9.044;2023-04-01T14:18:41;11.31;72.65
69084;SHT31;56185;48.526;9.044;2023-04-01T14:21:23;11.19;72.06
69084;SHT31;56185;48.526;9.044;2023-04-01T14:26:41;11.07;72.07
69084;SHT31;56185;48.526;9.044;2023-04-01T14:32:21;11.10;71.54
69084;SHT31;56185;48.526;9.044;2023-04-01T14:35:18;11.19;72.14
69084;SHT31;56185;48.526;9.044;2023-04-01T14:38:11;11.21;72.44
69084;SHT31;56185;48.526;9.044;2023-04-01T14:43:38;11.31;73.70
69084;SHT31;56185;48.526;9.044;2023-04-01T14:51:46;11.40;73.32
69084;SHT31;56185;48.526;9.044;2023-04-01T14:54:13;11.40;72.96
69084;SHT31;56185;48.526;9.044;2023-04-01T14:56:43;11.44;72.52
69084;SHT31;56185;48.526;9.044;2023-04-01T14:59:14;11.45;72.41
69084;SHT31;56185;48.526;9.044;2023-04-01T15:10:43;11.44;72.79
69084;SHT31;56185;48.526;9.044;2023-04-01T15:13:24;11.37;72.24
69084;SHT31;56185;48.526;9.044;2023-04-01T15:24:25;11.23;73.67
69084;SHT31;56185;48.526;9.044;2023-04-01T15:29:40;11.21;73.83
69084;SHT31;56185;48.526;9.044;2023-04-01T15:32:33;11.24;73.87
69084;SHT31;56185;48.526;9.044;2023-04-01T15:35:25;11.13;73.11
69084;SHT31;56185;48.526;9.044;2023-04-01T15:38:06;11.06;73.38
69084;SHT31;56185;48.526;9.044;2023-04-01T15:40:44;11.01;73.75
69084;SHT31;56185;48.526;9.044;2023-04-01T15:43:31;11.13;73.68
69084;SHT31;56185;48.526;9.044;2023-04-01T15:57:13;10.97;73.46
69084;SHT31;56185;48.526;9.044;2023-04-01T16:00:05;11.01;72.60
69084;SHT31;56185;48.526;9.044;2023-04-01T16:05:22;10.86;71.43
69084;SHT31;56185;48.526;9.044;2023-04-01T16:59:41;11.04;71.50
69084;SHT31;56185;48.526;9.044;2023-04-01T17:02:14;11.03;71.37
69084;SHT31;56185;48.526;9.044;2023-04-01T17:04:51;11.01;71.78
69084;SHT31;56185;48.526;9.044;2023-04-01T17:07:28;11.07;71.37
69084;SHT31;56185;48.526;9.044;2023-04-01T17:20:47;11.06;71.96
69084;SHT31;56185;48.526;9.044;2023-04-01T17:23:46;11.00;72.62
69084;SHT31;56185;48.526;9.044;2023-04-01T17:26:33;11.10;72.69
69084;SHT31;56185;48.526;9.044;2023-04-01T17:29:15;10.97;72.43
69084;SHT31;56185;48.526;9.044;2023-04-01T17:31:49;10.95;71.87
69084;SHT31;56185;48.526;9.044;2023-04-01T17:45:23;10.92;71.79
69084;SHT31;56185;48.526;9.044;2023-04-01T17:50:51;10.76;71.37
69084;SHT31;56185;48.526;9.044;2023-04-01T17:53:27;10.69;71.81
69084;SHT31;56185;48.526;9.044;2023-04-01T17:58:55;10.79;72.46
69084;SHT31;56185;48.526;9.044;2023-04-01T18:07:15;10.82;72.01
69084;SHT31;56185;48.526;9.044;2023-04-01T18:12:54;10.68;70.54
69084;SHT31;56185;48.526;9.044;2023-04-01T18:15:37;10.73;71.49
69084;SHT31;56185;48.526;9.044;2023-04-01T18:23:39;10.70;71.57
69084;SHT31;56185;48.526;9.044;2023-04-01T18:26:12;10.73;73.44
69084;SHT31;56185;48.526;9.044;2023-04-01T18:28:40;10.59;73.46
69084;SHT31;56185;48.526;9.044;2023-04-01T18:31:20;10.59;74.87
69084;SHT31;56185;48.526;9.044;2023-04-01T18:33:59;10.45;75.87
69084;SHT31;56185;48.526;9.044;2023-04-01T18:39:15;10.37;78.33
69084;SHT31;56185;48.526;9.044;2023-04-01T18:44:46;10.00;78.53
69084;SHT31;56185;48.526;9.044;2023-04-01T18:50:11;9.77;80.07
69084;SHT31;56185;48.526;9.044;2023-04-01T18:52:43;9.72;80.69
69084;SHT31;56185;48.526;9.044;2023-04-01T18:55:24;9.73;80.25
69084;SHT31;56185;48.526;9.044;2023-04-01T18:58:14;9.70;79.91
69084;SHT31;56185;48.526;9.044;2023-04-01T19:00:47;9.81;79.91
69084;SHT31;56185;48.526;9.044;2023-04-01T19:04:21;9.84;79.95
69084;SHT31;56185;48.526;9.044;2023-04-01T19:06:46;9.70;80.40
69084;SHT31;56185;48.526;9.044;2023-04-01T19:09:18;9.57;80.56
69084;SHT31;56185;48.526;9.044;2023-04-01T19:12:14;9.42;82.87
69084;SHT31;56185;48.526;9.044;2023-04-01T19:21:10;9.18;83.19
69084;SHT31;56185;48.526;9.044;2023-04-01T19:29:16;9.04;83.61
69084;SHT31;56185;48.526;9.044;2023-04-01T19:31:58;9.08;82.97
69084;SHT31;56185;48.526;9.044;2023-04-01T19:34:37;8.97;83.44
69084;SHT31;56185;48.526;9.044;2023-04-01T19:48:00;8.73;82.33
69084;SHT31;56185;48.526;9.044;2023-04-01T19:50:58;8.50;83.99
69084;SHT31;56185;48.526;9.044;2023-04-01T19:56:20;8.33;83.37
69084;SHT31;56185;48.526;9.044;2023-04-01T19:59:00;8.40;82.62
69084;SHT31;56185;48.526;9.044;2023-04-01T20:04:22;8.05;84.74
69084;SHT31;56185;48.526;9.044;2023-04-01T20:07:08;8.03;85.60
69084;SHT31;56185;48.526;9.044;2023-04-01T20:15:43;8.10;84.19
69084;SHT31;56185;48.526;9.044;2023-04-01T20:20:41;8.06;86.00
69084;SHT31;56185;48.526;9.044;2023-04-01T20:23:41;8.23;85.94
69084;SHT31;56185;48.526;9.044;2023-04-01T20:26:10;8.16;86.46
69084;SHT31;56185;48.526;9.044;2023-04-01T20:31:42;8.25;86.41
69084;SHT31;56185;48.526;9.044;2023-04-01T20:36:54;8.16;85.45
69084;SHT31;56185;48.526;9.044;2023-04-01T20:42:27;8.09;84.93
69084;SHT31;56185;48.526;9.044;2023-04-01T20:50:28;7.85;85.85
69084;SHT31;56185;48.526;9.044;2023-04-01T20:53:15;7.84;85.93
69084;SHT31;56185;48.526;9.044;2023-04-01T20:55:54;7.93;85.87
69084;SHT31;56185;48.526;9.044;2023-04-01T21:03:54;7.75;87.21
69084;SHT31;56185;48.526;9.044;2023-04-01T21:09:24;8.06;86.19
69084;SHT31;56185;48.526;9.044;2023-04-01T21:12:11;8.32;84.82
69084;SHT31;56185;48.526;9.044;2023-04-01T21:14:56;8.39;83.97
69084;SHT31;56185;48.526;9.044;2023-04-01T21:20:33;8.16;85.26
69084;SHT31;56185;48.526;9.044;2023-04-01T21:23:24;8.43;84.28
69084;SHT31;56185;48.526;9.044;2023-04-01T21:29:45;8.40;83.50
69084;SHT31;56185;48.526;9.044;2023-04-01T21:42:45;8.52;83.83
69084;SHT31;56185;48.526;9.044;2023-04-01T22:04:47;8.52;82.31
69084;SHT31;56185;48.526;9.044;2023-04-01T22:07:20;8.56;83.00
69084;SHT31;56185;48.526;9.044;2023-04-01T22:09:53;8.60;82.49
69084;SHT31;56185;48.526;9.044;2023-04-01T22:15:20;8.65;81.70
69084;SHT31;56185;48.526;9.044;2023-04-01T22:17:57;8.65;81.89
69084;SHT31;56185;48.526;9.044;2023-04-01T22:20:27;8.57;82.68
69084;SHT31;56185;48.526;9.044;2023-04-01T22:28:25;8.39;84.25
69084;SHT31;56185;48.526;9.044;2023-04-01T22:30:52;8.47;83.17
69084;SHT31;56185;48.526;9.044;2023-04-01T22:42:01;8.42;82.24
69084;SHT31;56185;48.526;9.044;2023-04-01T22:44:51;8.52;82.39
69084;SHT31;56185;48.526;9.044;2023-04-01T22:50:19;8.32;82.19
69084;SHT31;56185;48.526;9.044;2023-04-01T22:52:47;8.10;83.61
69084;SHT31;56185;48.526;9.044;2023-04-01T22:55:17;8.05;82.92
69084;SHT31;56185;48.526;9.044;2023-04-01T22:57:52;8.22;82.54
69084;SHT31;56185;48.526;9.044;2023-04-01T23:03:22;8.25;82.40
69084;SHT31;56185;48.526;9.044;2023-04-01T23:05:56;8.16;82.86
69084;SHT31;56185;48.526;9.044;2023-04-01T23:11:22;8.03;82.01
69084;SHT31;56185;48.526;9.044;2023-04-01T23:13:54;8.09;82.64
69084;SHT31;56185;48.526;9.044;2023-04-01T23:16:29;7.88;82.17
69084;SHT31;56185;48.526;9.044;2023-04-01T23:19:17;7.88;82.47
69084;SHT31;56185;48.526;9.044;2023-04-01T23:21:48;7.96;82.51
69084;SHT31;56185;48.526;9.044;2023-04-01T23:27:25;8.06;82.26
69084;SHT31;56185;48.526;9.044;2023-04-01T23:29:54;8.01;82.96
69084;SHT31;56185;48.526;9.044;2023-04-01T23:32:22;7.96;83.07
69084;SHT31;56185;48.526;9.044;2023-04-01T23:34:50;8.13;81.47
69084;SHT31;56185;48.526;9.044;2023-04-01T23:37:17;8.10;82.36
69084;SHT31;56185;48.526;9.044;2023-04-01T23:44:49;8.09;82.20
69084;SHT31;56185;48.526;9.044;2023-04-01T23:47:18;8.17;81.72
69084;SHT31;56185;48.526;9.044;2023-04-01T23:49:48;8.23;81.69
69084;SHT31;56185;48.526;9.044;2023-04-01T23:52:26;8.05;81.84
69084;SHT31;56185;48.526;9.044;2023-04-01T23:55:01;7.91;82.47
69084;SHT31;56185;48.526;9.044;2023-04-01T23:57:33;7.95;83.22
